Latest Weather Observations for Bankstown

IDN60901

Issued at 4:45 pm EDT Thursday 23 October 2014 (issued every 10 minutes, with the page automatically refreshed every 10 minutes)

About weather observations | Map of Sydney area stations | Latest observations for Sydney area | Other Formats
Station Details ID: 066137 Name: BANKSTOWN AIRPORT AWS Lat: -33.92 Lon: 150.99 Height: 6.5 m
Data from the previous 72 hours. | See also: Recent months at Bankstown
Date/Time
EDT
Tmp

°C
App
Tmp
°C
Dew
Point
°C
Rel
Hum
%
Delta-T

°C
Wind Press
QNH
hPa
Press
MSL
hPa
Rain
since
9 am
mm
Dir
 
Spd
km/h
Gust
km/h
Spd
kts
Gust
kts
23/04:30pm 25.0 21.1 13.2 48 6.9 ESE 26 30 14 16 1016.4 1016.4 0.0
23/04:00pm 26.7 22.4 12.0 40 8.4 ESE 26 33 14 18 1015.9 1015.9 0.0
23/03:30pm 27.4 23.7 11.4 37 9.1 ESE 22 30 12 16 1015.5 1015.5 0.0
23/03:00pm 28.9 24.3 11.0 33 10.2 ESE 26 35 14 19 1015.4 1015.4 0.0
23/02:30pm 29.1 24.9 11.2 33 10.3 E 24 33 13 18 1015.4 1015.4 0.0
23/02:00pm 30.3 26.5 11.3 31 11.0 ESE 22 30 12 16 1015.7 1015.7 0.0
23/01:30pm 31.2 28.8 13.9 35 10.4 SE 19 24 10 13 1016.1 1016.1 0.0
23/01:00pm 29.8 29.1 13.1 36 9.9 N 9 15 5 8 1016.2 1016.2 0.0
23/12:30pm 29.0 28.9 12.0 35 9.9 NW 4 9 2 5 1016.6 1016.6 0.0
23/12:00pm 27.9 27.7 13.1 40 8.7 W 6 11 3 6 1016.9 1016.9 0.0
23/11:30am 26.4 25.5 12.5 42 8.0 NW 9 15 5 8 1017.2 1017.2 0.0
23/11:00am 25.2 24.7 12.8 46 7.2 W 7 11 4 6 1017.5 1017.5 0.0
23/10:30am 23.6 23.7 12.6 50 6.3 WNW 4 9 2 5 1017.8 1017.8 0.0
23/10:00am 21.8 21.9 12.6 56 5.2 WNW 4 9 2 5 1018.2 1018.2 0.0
23/09:30am 20.5 19.7 13.0 62 4.3 NW 9 13 5 7 1018.1 1018.1 0.0
23/09:00am 19.3 18.9 13.0 67 3.6 NW 7 11 4 6 1018.2 1018.2 0.0
23/08:30am 17.7 17.1 12.4 71 2.9 WNW 7 9 4 5 1018.1 1018.1 0.0
23/08:00am 16.4 16.1 12.8 79 2.0 NNW 6 9 3 5 1018.4 1018.4 0.0
23/07:30am 15.0 14.8 12.9 87 1.2 NNW 6 9 3 5 1018.5 1018.5 0.0
23/07:00am 13.5 14.1 11.9 90 0.9 CALM 0 0 0 0 1018.3 1018.3 0.0
23/06:30am 12.5 12.7 10.7 89 0.9 CALM 0 0 0 0 1018.0 1018.0 0.0
23/06:00am 12.6 12.2 11.0 90 0.8 N 4 6 2 3 1017.6 1017.6 0.0
23/05:30am 12.5 12.8 10.9 90 0.8 CALM 0 0 0 0 1017.8 1017.8 0.0
23/05:00am 12.3 12.5 10.5 89 0.9 CALM 0 0 0 0 1017.6 1017.6 0.0
23/04:30am 12.6 12.9 10.8 89 0.9 CALM 0 0 0 0 1017.8 1017.8 0.0
23/04:00am 12.8 13.1 11.0 89 0.9 CALM 0 0 0 0 1017.7 1017.7 0.0
23/03:30am 13.0 13.4 11.2 89 0.9 CALM 0 0 0 0 1018.0 1018.0 0.0
23/03:00am 13.0 13.4 11.1 88 1.0 CALM 0 0 0 0 1018.1 1018.1 0.0
23/02:30am 13.4 13.8 11.3 87 1.1 CALM 0 0 0 0 1018.4 1018.4 0.0
23/02:00am 13.8 14.4 11.8 88 1.1 CALM 0 0 0 0 1018.7 1018.7 0.0
23/01:30am 13.7 14.1 11.4 86 1.2 CALM 0 0 0 0 1019.1 1019.1 0.0
23/01:00am 13.8 14.2 11.3 85 1.3 CALM 0 0 0 0 1019.4 1019.4 0.0
23/12:30am 14.4 14.8 11.2 81 1.7 CALM 0 0 0 0 1019.6 1019.6 0.0
23/12:00am 14.4 14.6 10.6 78 2.0 NNE 0 0 0 0 1020.0 1020.0 0.0
 
Date/Time
EDT
Tmp

°C
App
Tmp
°C
Dew
Point
°C
Rel
Hum
%
Delta-T

°C
Wind Press
QNH
hPa
Press
MSL
hPa
Rain
since
9 am
mm
Dir
 
Spd
km/h
Gust
km/h
Spd
kts
Gust
kts
22/11:30pm 15.9 16.4 11.7 76 2.3 CALM 0 0 0 0 1020.1 1020.1 0.0
22/11:00pm 15.6 15.9 11.0 74 2.4 CALM 0 0 0 0 1020.5 1020.5 0.0
22/10:30pm 16.6 17.0 11.1 70 3.0 CALM 0 0 0 0 1020.5 1020.5 0.0
22/10:00pm 17.9 18.0 11.5 66 3.5 N 2 6 1 3 1020.5 1020.5 0.0
22/09:30pm 18.1 17.1 11.0 63 3.8 N 7 11 4 6 1020.3 1020.3 0.0
22/09:00pm 18.3 17.2 10.7 61 4.1 NNE 7 15 4 8 1020.2 1020.2 0.0
22/08:30pm 18.5 16.7 10.8 61 4.2 NNE 11 19 6 10 1019.8 1019.8 0.0
22/08:00pm 18.7 16.4 10.5 59 4.4 NNE 13 24 7 13 1019.8 1019.8 0.0
22/07:30pm 19.2 16.6 10.7 58 4.6 NE 15 20 8 11 1019.7 1019.7 0.0
22/07:00pm 19.8 17.6 10.8 56 4.9 NE 13 22 7 12 1019.6 1019.6 0.0
22/06:30pm 20.7 18.1 10.8 53 5.4 NE 15 22 8 12 1019.5 1019.5 0.0
22/06:00pm 21.7 18.5 11.1 51 5.8 ENE 19 32 10 17 1019.5 1019.5 0.0
22/05:30pm 22.0 18.4 10.5 48 6.3 NE 20 30 11 16 1019.6 1019.6 0.0
22/05:00pm 22.0 17.9 10.2 47 6.4 ENE 22 32 12 17 1019.7 1019.7 0.0
22/04:30pm 23.0 19.1 10.8 46 6.8 ENE 22 33 12 18 1019.8 1019.8 0.0
22/04:00pm 22.6 18.6 10.4 46 6.7 ENE 22 32 12 17 1020.3 1020.3 0.0
22/03:30pm 22.9 18.1 10.3 45 6.9 ENE 26 32 14 17 1020.6 1020.6 0.0
22/03:00pm 24.0 21.3 10.3 42 7.5 ENE 15 24 8 13 1021.1 1021.1 0.0
22/02:30pm 23.2 20.8 8.5 39 7.8 N 11 20 6 11 1021.9 1021.9 0.0
22/02:00pm 22.7 19.7 7.7 38 7.8 NNE 13 20 7 11 1022.4 1022.4 0.0
22/01:30pm 21.8 18.3 8.7 43 6.9 N 17 28 9 15 1023.2 1023.2 0.0
22/01:00pm 21.8 18.0 7.6 40 7.3 NNE 17 28 9 15 1023.7 1023.7 0.0
22/12:30pm 21.3 18.0 8.2 43 6.8 NNE 15 22 8 12 1024.5 1024.5 0.0
22/12:00pm 20.6 16.6 8.3 45 6.4 N 19 28 10 15 1025.2 1025.2 0.0
22/11:30am 19.7 16.8 8.1 47 6.0 N 13 24 7 13 1025.8 1025.8 0.0
22/11:00am 20.7 17.3 9.3 48 6.0 NNW 17 28 9 15 1026.1 1026.1 0.0
22/10:30am 19.4 16.0 7.8 47 5.9 NNW 15 28 8 15 1026.6 1026.6 0.0
22/10:00am 18.5 14.7 7.6 49 5.5 NNW 17 24 9 13 1026.9 1026.9 0.0
22/09:30am 18.4 15.4 7.8 50 5.4 N 13 20 7 11 1027.0 1027.0 0.0
22/09:00am 17.9 15.0 6.7 48 5.5 WNW 11 20 6 11 1027.1 1027.1 0.0
22/08:30am 17.1 15.7 9.0 59 4.2 NNW 6 9 3 5 1027.2 1027.2 0.0
22/08:00am 15.7 14.5 9.6 67 3.1 NW 6 11 3 6 1027.4 1027.4 0.0
22/07:30am 14.8 14.8 9.8 72 2.6 CALM 0 0 0 0 1027.4 1027.4 0.0
22/07:00am 14.5 13.4 10.1 75 2.3 NNW 6 7 3 4 1027.6 1027.6 0.0
22/06:30am 14.3 14.2 9.3 72 2.6 CALM 0 0 0 0 1027.4 1027.4 0.0
22/06:00am 13.9 13.8 9.5 75 2.2 CALM 0 0 0 0 1027.4 1027.4 0.0
22/05:30am 13.8 13.8 9.8 77 2.1 CALM 0 0 0 0 1027.3 1027.3 0.0
22/05:00am 13.8 13.4 9.6 76 2.1 N 2 7 1 4 1027.3 1027.3 0.0
22/04:30am 14.3 13.5 9.5 73 2.5 N 4 6 2 3 1027.6 1027.6 0.0
22/04:00am 13.3 13.1 9.2 76 2.1 CALM 0 0 0 0 1027.7 1027.7 0.0
22/03:30am 14.6 13.5 8.5 67 3.1 N 4 6 2 3 1028.1 1028.1 0.0
22/03:00am 14.8 13.4 9.0 68 2.9 N 6 7 3 4 1028.4 1028.4 0.0
22/02:30am 14.9 13.5 8.8 67 3.1 N 6 7 3 4 1028.9 1028.9 0.0
22/02:00am 14.3 12.9 8.9 70 2.7 N 6 7 3 4 1029.2 1029.2 0.0
22/01:30am 14.1 12.1 8.7 70 2.7 NNW 9 11 5 6 1029.6 1029.6 0.0
22/01:00am 15.4 13.3 8.2 62 3.6 ENE 9 13 5 7 1030.1 1030.1 0.0
22/12:30am 15.6 13.5 8.1 61 3.8 NE 9 15 5 8 1030.6 1030.6 0.0
22/12:00am 15.4 13.2 7.7 60 3.8 NE 9 11 5 6 1030.9 1030.9 0.0
 
Date/Time
EDT
Tmp

°C
App
Tmp
°C
Dew
Point
°C
Rel
Hum
%
Delta-T

°C
Wind Press
QNH
hPa
Press
MSL
hPa
Rain
since
9 am
mm
Dir
 
Spd
km/h
Gust
km/h
Spd
kts
Gust
kts
21/11:30pm 16.0 14.0 7.2 56 4.4 NE 7 11 4 6 1031.0 1031.0 0.0
21/11:00pm 16.2 13.8 7.2 55 4.4 ENE 9 13 5 7 1031.2 1031.2 0.0
21/10:30pm 16.1 13.4 7.3 56 4.4 NNE 11 17 6 9 1031.3 1031.3 0.0
21/10:00pm 16.3 14.1 7.8 57 4.2 NE 9 13 5 7 1031.4 1031.4 0.0
21/09:30pm 16.3 14.0 7.5 56 4.4 NE 9 15 5 8 1031.3 1031.3 0.0
21/09:00pm 16.3 14.1 7.8 57 4.2 NE 9 13 5 7 1031.2 1031.2 0.0
21/08:30pm 16.4 13.8 7.9 57 4.3 NE 11 13 6 7 1031.1 1031.1 0.0
21/08:00pm 16.3 14.7 8.0 58 4.2 NNE 6 9 3 5 1030.7 1030.7 0.0
21/07:30pm 16.6 14.5 8.1 57 4.3 NE 9 15 5 8 1030.5 1030.5 0.0
21/07:00pm 16.8 14.0 6.9 52 4.9 NNE 11 13 6 7 1030.4 1030.4 0.0
21/06:30pm 17.0 13.7 6.5 50 5.2 NE 13 19 7 10 1030.2 1030.2 0.0
21/06:00pm 17.2 13.6 6.7 50 5.2 ENE 15 20 8 11 1030.1 1030.1 0.0
21/05:30pm 17.3 14.0 6.5 49 5.3 E 13 20 7 11 1030.1 1030.1 0.0
21/05:00pm 17.5 13.8 6.4 48 5.4 E 15 20 8 11 1030.1 1030.1 0.0
21/04:30pm 17.8 14.5 6.3 47 5.7 E 13 20 7 11 1030.0 1030.0 0.0
21/04:00pm 17.9 14.5 6.1 46 5.7 E 13 19 7 10 1030.1 1030.1 0.0
21/03:30pm 17.7 13.9 5.6 45 5.9 E 15 20 8 11 1030.3 1030.3 0.0
21/03:00pm 18.0 14.6 5.9 45 5.9 E 13 20 7 11 1030.7 1030.7 0.0
21/02:30pm 17.7 13.9 5.6 45 5.9 ENE 15 24 8 13 1031.0 1031.0 0.0
21/02:00pm 17.7 14.0 6.3 47 5.6 E 15 20 8 11 1031.5 1031.5 0.0
21/01:30pm 17.7 14.2 5.6 45 5.9 ENE 13 20 7 11 1031.9 1031.9 0.0
21/01:00pm 17.6 13.3 5.2 44 5.9 E 17 24 9 13 1032.2 1032.2 0.0
21/12:30pm 17.7 14.2 5.6 45 5.9 E 13 19 7 10 1032.4 1032.4 0.0
21/12:00pm 17.4 14.0 5.7 46 5.6 E 13 19 7 10 1032.7 1032.7 0.0
21/11:30am 17.4 13.6 6.0 47 5.6 ENE 15 19 8 10 1032.8 1032.8 0.0
21/11:00am 17.5 14.2 6.4 48 5.4 E 13 19 7 10 1032.9 1032.9 0.0
21/10:30am 17.6 13.9 6.2 47 5.6 E 15 20 8 11 1033.0 1033.0 0.0
21/10:00am 17.3 14.1 6.8 50 5.2 E 13 19 7 10 1033.0 1033.0 0.0
21/09:30am 17.0 13.5 7.1 52 4.9 ESE 15 20 8 11 1032.9 1032.9 0.0
21/09:00am 16.1 14.9 9.5 65 3.4 SSE 6 11 3 6 1032.7 1032.7 0.4
21/08:30am 15.2 14.2 11.0 76 2.2 SSW 7 9 4 5 1032.5 1032.5 0.4
21/08:00am 14.7 13.9 11.1 79 1.9 SSW 6 7 3 4 1032.3 1032.3 0.4
21/07:30am 14.2 13.2 11.0 81 1.7 SSW 7 9 4 5 1032.0 1032.0 0.4
21/07:00am 13.8 12.0 11.0 83 1.5 SSW 11 13 6 7 1031.8 1031.8 0.4
21/06:30am 13.7 12.7 11.0 84 1.4 SSW 7 9 4 5 1031.5 1031.5 0.4
21/06:00am 13.5 12.6 11.2 86 1.2 SSW 7 7 4 4 1031.2 1031.2 0.4
21/05:30am 13.7 13.7 11.0 84 1.4 S 2 6 1 3 1031.0 1031.0 0.4
21/05:00am 13.6 12.3 11.3 86 1.2 SSW 9 11 5 6 1031.1 1031.1 0.4
21/04:30am 13.7 12.8 11.4 86 1.2 S 7 9 4 5 1031.0 1031.0 0.4
21/04:00am 13.8 13.1 11.3 85 1.3 ESE 6 7 3 4 1031.1 1031.1 0.4
21/03:30am 14.0 13.2 11.2 83 1.5 ENE 6 9 3 5 1031.2 1031.2 0.4
21/03:00am 14.1 12.6 12.0 87 1.1 SE 11 13 6 7 1031.5 1031.5 0.2
21/02:30am 14.0 12.9 12.0 88 1.1 SE 9 13 5 7 1031.6 1031.6 0.2
21/02:28am 14.0 12.9 12.0 88 1.1 SE 9 13 5 7 1031.6 1031.6 0.2
21/02:05am 14.1 11.8 11.6 85 1.3 SE 15 20 8 11 1031.6 1031.6 0.0
21/02:00am 14.2 11.4 11.5 84 1.4 SE 17 24 9 13 1031.7 1031.7 0.0
21/01:30am 14.7 14.2 12.2 85 1.4 W 6 9 3 5 1031.6 1031.6 0.0
21/01:00am 14.8 13.8 12.3 85 1.3 SW 9 11 5 6 1031.7 1031.7 0.0
21/12:30am 14.6 14.9 12.1 85 1.4 E 2 6 1 3 1031.9 1031.9 0.0
21/12:00am 15.0 14.9 12.0 82 1.6 E 4 7 2 4 1032.0 1032.0 0.0
 
Date/Time
EDT
Tmp

°C
App
Tmp
°C
Dew
Point
°C
Rel
Hum
%
Delta-T

°C
Wind Press
QNH
hPa
Press
MSL
hPa
Rain
since
9 am
mm
Dir
 
Spd
km/h
Gust
km/h
Spd
kts
Gust
kts
20/11:30pm 15.0 12.3 11.8 81 1.7 SE 17 24 9 13 1032.2 1032.2 0.0
20/11:00pm 16.0 14.9 10.5 70 2.9 SSE 7 9 4 5 1032.0 1032.0 0.0
20/10:30pm 16.1 13.9 10.8 71 2.8 SE 13 17 7 9 1032.0 1032.0 0.0
20/10:00pm 15.5 14.2 11.3 76 2.2 SSE 9 13 5 7 1032.1 1032.1 0.0
20/09:30pm 15.6 13.6 11.4 76 2.3 E 13 13 7 7 1031.9 1031.9 0.0
20/09:00pm 15.8 12.5 11.6 76 2.2 SE 20 32 11 17 1032.0 1032.0 0.0
20/08:30pm 16.9 13.5 9.3 61 3.9 SSE 17 20 9 11 1031.4 1031.4 0.0
20/08:00pm 17.0 12.7 9.2 60 4.0 SSE 22 28 12 15 1031.1 1031.1 0.0
20/07:30pm 16.9 14.0 8.1 56 4.5 SSE 13 17 7 9 1030.8 1030.8 0.0
20/07:00pm 16.7 13.2 8.7 59 4.1 SSE 17 22 9 12 1030.7 1030.7 0.0
20/06:30pm 17.0 13.0 9.2 60 4.0 SSE 20 30 11 16 1030.4 1030.4 0.0
20/06:00pm 17.3 13.5 9.0 58 4.3 SSE 19 32 10 17 1030.2 1030.2 0.0
20/05:30pm 16.9 12.1 8.8 59 4.2 SSE 24 33 13 18 1030.1 1030.1 0.0
20/05:00pm 17.8 12.9 8.4 54 4.8 S 24 30 13 16 1030.0 1030.0 0.0

Latest Capital City Observations: Canberra | Sydney | Melbourne | Brisbane | Adelaide | Perth | Hobart | Darwin

Other Formats:

Comma delimited format used in spreadsheet applications
http://www.bom.gov.au/fwo/IDN60901/IDN60901.94765.axf

JavaScript Object Notation format (JSON) in row-major order
http://www.bom.gov.au/fwo/IDN60901/IDN60901.94765.json